Time;durP1;ratioP1;P1;durP2;ratioP2;P2;SDS_P1;SDS_P2;PMS_P1;PMS_P2;Temp;Humidity;BMP_temperature;BMP_pressure;BME280_temperature;BME280_humidity;BME280_pressure;Samples;Min_cycle;Max_cycle;Signal;HPM_P1;HPM_P2
2024/02/15 00:00:01;;;;;;;1.75;0.70;;;;;;;11.97;100.00;98017.66;5025690;28;20049;-80
2024/02/15 00:02:29;;;;;;;1.67;0.80;;;;;;;12.01;100.00;98024.84;5038861;28;20041;-78
2024/02/15 00:04:56;;;;;;;1.25;0.70;;;;;;;12.05;100.00;98028.56;5039626;28;20041;-80
2024/02/15 00:07:23;;;;;;;1.40;0.80;;;;;;;11.92;100.00;98024.03;5033349;28;20062;-77
2024/02/15 00:09:50;;;;;;;1.15;0.70;;;;;;;12.08;100.00;98029.84;5037960;28;20046;-79
2024/02/15 00:12:16;;;;;;;1.95;1.05;;;;;;;11.97;100.00;98021.19;5055604;28;20050;-78
2024/02/15 00:14:43;;;;;;;0.88;0.50;;;;;;;12.05;100.00;98038.59;5032747;28;20050;-78
2024/02/15 00:17:11;;;;;;;1.30;0.80;;;;;;;12.17;100.00;98028.75;5033764;28;20113;-78
2024/02/15 00:19:41;;;;;;;1.10;0.60;;;;;;;12.13;100.00;98026.97;5055963;28;20076;-77
2024/02/15 00:22:10;;;;;;;0.80;0.60;;;;;;;12.01;100.00;98011.28;5030394;28;20100;-78
2024/02/15 00:24:38;;;;;;;1.00;0.60;;;;;;;11.88;100.00;98009.47;5053857;28;20065;-79
2024/02/15 00:27:04;;;;;;;0.90;0.65;;;;;;;12.17;100.00;98019.78;5035272;28;20041;-80
2024/02/15 00:29:32;;;;;;;0.75;0.43;;;;;;;12.09;100.00;98015.13;5022061;28;20065;-80
2024/02/15 00:31:59;;;;;;;0.68;0.50;;;;;;;11.98;100.00;98013.81;5037554;28;20049;-80
2024/02/15 00:34:26;;;;;;;1.77;0.70;;;;;;;12.04;100.00;98009.84;5030084;28;20512;-79
2024/02/15 00:36:53;;;;;;;0.88;0.57;;;;;;;12.09;100.00;98015.13;5036772;28;20049;-78
2024/02/15 00:39:20;;;;;;;0.80;0.57;;;;;;;11.98;100.00;98016.53;5031826;28;20588;-77
2024/02/15 00:41:47;;;;;;;1.00;0.50;;;;;;;11.98;100.00;98006.47;5041919;28;20053;-77
2024/02/15 00:44:15;;;;;;;1.00;0.75;;;;;;;11.93;100.00;98019.38;5061808;28;20049;-78
2024/02/15 00:46:42;;;;;;;1.15;0.70;;;;;;;11.91;100.00;98019.72;5038864;28;20104;-80
2024/02/15 00:49:08;;;;;;;0.80;0.50;;;;;;;12.04;100.00;98020.72;5030148;28;20117;-79
2024/02/15 00:51:36;;;;;;;0.80;0.65;;;;;;;11.88;100.00;98001.34;5037504;28;20064;-80
2024/02/15 00:54:03;;;;;;;0.70;0.60;;;;;;;11.92;100.00;98015.88;5051612;28;20097;-80
2024/02/15 00:56:32;;;;;;;0.80;0.57;;;;;;;12.09;100.00;98021.38;5045475;28;20065;-78
2024/02/15 00:59:03;;;;;;;1.35;0.80;;;;;;;12.03;100.00;98017.19;5051093;28;20530;-79
2024/02/15 01:01:31;;;;;;;1.30;0.80;;;;;;;12.08;100.00;98029.84;5026383;28;20100;-80
2024/02/15 01:03:58;;;;;;;1.15;0.77;;;;;;;12.17;100.00;98025.22;5024456;28;20037;-81
2024/02/15 01:06:27;;;;;;;2.97;0.98;;;;;;;12.02;100.00;98021.03;5027477;28;20041;-79
2024/02/15 01:08:54;;;;;;;1.08;0.70;;;;;;;12.13;100.00;98029.69;5038389;28;20037;-79
2024/02/15 01:11:21;;;;;;;2.10;0.75;;;;;;;12.08;100.00;98029.84;5012538;28;20088;-79
2024/02/15 01:13:48;;;;;;;2.13;0.93;;;;;;;12.13;100.00;98025.03;5041642;28;20057;-79
2024/02/15 01:16:15;;;;;;;1.33;0.95;;;;;;;11.84;100.00;98016.66;5039885;28;20113;-77
2024/02/15 01:18:42;;;;;;;2.85;0.80;;;;;;;11.95;100.00;98014.47;5039671;28;20056;-79
2024/02/15 01:21:11;;;;;;;1.25;0.85;;;;;;;11.84;100.00;98009.31;5032455;28;20095;-79
2024/02/15 01:23:38;;;;;;;1.67;0.98;;;;;;;11.83;100.00;98025.91;5026350;28;20579;-79
2024/02/15 01:26:07;;;;;;;1.80;1.08;;;;;;;11.81;100.00;98022.69;5032855;28;20164;-78
2024/02/15 01:28:33;;;;;;;2.00;1.00;;;;;;;11.82;100.00;98019.66;5031621;28;20049;-79
2024/02/15 01:31:01;;;;;;;1.30;0.93;;;;;;;12.08;100.00;98025.19;5031317;28;20050;-79
2024/02/15 01:33:28;;;;;;;1.15;0.90;;;;;;;11.87;100.00;98019.53;5034330;28;20045;-78
2024/02/15 01:35:56;;;;;;;1.00;0.82;;;;;;;11.87;100.00;98014.09;5039151;28;20076;-78
2024/02/15 01:38:23;;;;;;;1.15;0.80;;;;;;;11.86;100.00;98012.53;5030003;28;20068;-80
2024/02/15 01:40:49;;;;;;;1.20;0.80;;;;;;;12.01;100.00;98030.28;5025203;28;20120;-77
2024/02/15 01:43:16;;;;;;;1.10;0.90;;;;;;;12.06;100.00;98022.00;5035737;28;20606;-79
2024/02/15 01:45:43;;;;;;;2.13;0.90;;;;;;;11.97;100.00;98020.38;5030761;28;20048;-80
2024/02/15 01:48:10;;;;;;;1.02;0.82;;;;;;;12.08;100.00;98013.56;5039317;28;20055;-78
2024/02/15 01:50:39;;;;;;;2.10;0.98;;;;;;;11.93;100.00;98013.94;5033299;28;20522;-78
2024/02/15 01:53:08;;;;;;;1.70;0.90;;;;;;;12.10;100.00;98011.31;5037242;28;20049;-78
2024/02/15 01:55:35;;;;;;;1.45;0.90;;;;;;;12.03;100.00;98009.03;5040016;28;20112;-81
2024/02/15 01:58:03;;;;;;;0.95;0.85;;;;;;;12.17;100.00;98007.03;5037060;28;20075;-80
2024/02/15 02:00:30;;;;;;;1.10;0.90;;;;;;;12.11;100.00;97993.91;5035206;28;20107;-77
2024/02/15 02:03:02;;;;;;;1.50;1.10;;;;;;;12.06;100.00;98004.91;5052809;28;20067;-81
2024/02/15 02:05:31;;;;;;;1.67;1.08;;;;;;;12.13;100.00;98006.03;5030387;28;20116;-80
2024/02/15 02:08:01;;;;;;;1.52;0.82;;;;;;;12.20;100.00;98006.41;5035016;28;20053;-78
2024/02/15 02:10:32;;;;;;;1.55;1.13;;;;;;;12.11;100.00;98002.03;5030474;28;20049;-78
2024/02/15 02:13:03;;;;;;;1.90;1.20;;;;;;;12.09;100.00;98007.78;5038894;28;20100;-77
2024/02/15 02:15:31;;;;;;;2.42;1.30;;;;;;;12.15;100.00;97995.69;5030997;28;20099;-78
2024/02/15 02:18:00;;;;;;;1.83;1.00;;;;;;;12.18;100.00;97997.75;5035446;28;20055;-79
2024/02/15 02:20:27;;;;;;;1.10;0.80;;;;;;;12.16;100.00;98007.31;5026063;28;20076;-77
2024/02/15 02:23:09;;;;;;;1.58;1.08;;;;;;;12.11;100.00;98008.28;5038114;28;20083;-79
2024/02/15 02:25:36;;;;;;;1.52;1.00;;;;;;;12.14;100.00;98006.84;5033821;28;20072;-77
2024/02/15 02:28:03;;;;;;;1.90;1.10;;;;;;;12.21;100.00;98012.59;5017877;28;20056;-80
2024/02/15 02:30:30;;;;;;;2.05;1.10;;;;;;;12.09;100.00;98007.00;5013403;28;20050;-76
2024/02/15 02:32:59;;;;;;;1.25;0.90;;;;;;;12.28;100.00;98008.34;5028140;28;20058;-78
2024/02/15 02:35:27;;;;;;;1.08;0.82;;;;;;;12.30;100.00;98016.94;5023165;28;20049;-77
2024/02/15 02:37:55;;;;;;;2.00;1.10;;;;;;;12.22;100.00;98016.94;5010687;28;20042;-78
2024/02/15 02:40:22;;;;;;;1.95;1.13;;;;;;;12.30;100.00;98011.53;5045560;28;20065;-79
2024/02/15 02:42:55;;;;;;;3.30;1.10;;;;;;;12.24;100.00;98007.34;5023432;28;20119;-79
2024/02/15 02:45:22;;;;;;;1.00;0.80;;;;;;;12.25;100.00;98011.69;5029725;28;20065;-78
2024/02/15 02:47:53;;;;;;;1.48;0.98;;;;;;;12.31;100.00;98006.91;5014307;28;20131;-79
2024/02/15 02:50:22;;;;;;;1.02;0.80;;;;;;;12.34;100.00;98009.75;5051681;28;20057;-78
2024/02/15 02:52:51;;;;;;;3.25;1.00;;;;;;;12.27;100.00;98014.06;5019752;28;20109;-79
2024/02/15 02:55:18;;;;;;;1.35;1.05;;;;;;;12.34;100.00;98006.25;5000749;28;20049;-79
2024/02/15 02:57:45;;;;;;;2.08;1.10;;;;;;;12.22;100.00;98004.16;5015971;28;20054;-77
2024/02/15 03:00:15;;;;;;;1.60;1.00;;;;;;;12.30;100.00;98016.94;5042914;28;20061;-77
2024/02/15 03:02:44;;;;;;;1.45;1.10;;;;;;;12.64;100.00;98010.78;5008998;28;20078;-79
2024/02/15 03:05:11;;;;;;;1.35;1.10;;;;;;;12.64;100.00;98013.50;5003771;28;20130;-80
2024/02/15 03:07:41;;;;;;;1.67;1.13;;;;;;;12.67;100.00;98009.34;5033686;28;20127;-79
2024/02/15 03:10:13;;;;;;;1.42;0.98;;;;;;;12.54;100.00;98005.66;5028614;28;20117;-78
2024/02/15 03:12:50;;;;;;;2.42;1.20;;;;;;;12.60;100.00;98009.00;5009327;28;20424;-78
2024/02/15 03:15:17;;;;;;;2.03;1.10;;;;;;;12.68;100.00;98003.56;5012264;28;20118;-78
2024/02/15 03:17:47;;;;;;;2.03;1.10;;;;;;;12.63;100.00;98019.22;5008494;28;20072;-78
2024/02/15 03:20:20;;;;;;;1.92;1.10;;;;;;;12.66;100.00;98007.72;5019877;28;20049;-78
2024/02/15 03:22:57;;;;;;;1.58;1.08;;;;;;;12.70;100.00;98012.19;5032896;28;20167;-80
2024/02/15 03:25:25;;;;;;;1.70;1.10;;;;;;;12.71;100.00;98013.00;5029066;28;20428;-79
2024/02/15 03:27:54;;;;;;;1.17;0.80;;;;;;;12.40;100.00;98010.41;5005790;28;20106;-77
2024/02/15 03:30:26;;;;;;;4.90;0.95;;;;;;;12.52;100.00;98007.88;5014051;28;20058;-78
2024/02/15 03:32:53;;;;;;;1.00;0.80;;;;;;;12.42;100.00;98010.88;5015963;28;20141;-79
2024/02/15 03:35:22;;;;;;;0.93;0.77;;;;;;;12.40;100.00;98008.50;5034234;28;20057;-80
2024/02/15 03:37:51;;;;;;;2.17;0.93;;;;;;;12.26;100.00;98013.25;5036178;28;20077;-79
2024/02/15 03:40:19;;;;;;;3.33;1.23;;;;;;;12.35;100.00;98013.28;5034874;28;20125;-78
2024/02/15 03:42:52;;;;;;;1.20;1.00;;;;;;;12.33;100.00;98008.19;5041620;28;20137;-78
2024/02/15 03:45:20;;;;;;;1.58;1.02;;;;;;;12.58;100.00;98014.75;5024158;28;20062;-78
2024/02/15 03:47:47;;;;;;;2.15;0.90;;;;;;;12.29;100.00;98004.47;5034422;28;20200;-79
2024/02/15 03:50:14;;;;;;;1.40;0.80;;;;;;;12.28;100.00;97996.66;5038500;28;20057;-77
2024/02/15 03:52:42;;;;;;;2.45;1.00;;;;;;;12.45;100.00;98002.91;5031204;28;20069;-77
2024/02/15 03:55:09;;;;;;;3.03;1.00;;;;;;;12.37;100.00;97998.28;5037053;28;20057;-77
2024/02/15 03:57:46;;;;;;;1.30;0.88;;;;;;;12.38;100.00;97999.06;5045467;28;20048;-77
2024/02/15 04:00:15;;;;;;;1.48;0.90;;;;;;;12.35;100.00;98002.41;5045506;28;20061;-78
2024/02/15 04:02:43;;;;;;;1.30;0.90;;;;;;;12.17;100.00;97998.06;5028711;28;20046;-79
2024/02/15 04:05:11;;;;;;;1.70;1.08;;;;;;;12.46;100.00;97999.06;4990663;28;20064;-78
2024/02/15 04:07:39;;;;;;;2.75;1.10;;;;;;;12.31;100.00;97998.75;5005692;28;20172;-79
2024/02/15 04:10:08;;;;;;;2.72;1.00;;;;;;;12.25;100.00;98003.53;5006498;28;20061;-79
2024/02/15 04:12:35;;;;;;;1.70;1.00;;;;;;;12.47;100.00;98008.03;5000222;28;20038;-78
2024/02/15 04:15:07;;;;;;;1.83;0.88;;;;;;;12.29;100.00;98012.63;5007706;28;20087;-78
2024/02/15 04:17:34;;;;;;;2.47;1.00;;;;;;;12.13;100.00;98000.59;5011469;28;20050;-80
2024/02/15 04:20:04;;;;;;;1.45;0.80;;;;;;;12.32;100.00;98005.75;5020289;28;20061;-79
2024/02/15 04:22:37;;;;;;;1.40;0.90;;;;;;;12.18;100.00;98007.81;5021512;28;20045;-80
2024/02/15 04:25:06;;;;;;;1.83;0.90;;;;;;;12.14;100.00;98021.22;5044363;28;20065;-79
2024/02/15 04:27:33;;;;;;;1.55;0.90;;;;;;;12.14;100.00;97999.50;5021666;28;20077;-79
2024/02/15 04:30:02;;;;;;;2.78;1.17;;;;;;;12.17;100.00;98004.31;5029722;28;20045;-78
2024/02/15 04:32:33;;;;;;;2.05;1.20;;;;;;;12.25;100.00;98017.09;5013709;28;20077;-78
2024/02/15 04:35:01;;;;;;;2.05;1.33;;;;;;;12.19;100.00;98010.22;5029572;28;20131;-78
2024/02/15 04:37:29;;;;;;;1.70;1.10;;;;;;;12.09;100.00;98015.94;5042592;28;20045;-77
2024/02/15 04:39:56;;;;;;;1.80;1.00;;;;;;;12.28;100.00;98016.47;5061255;28;20360;-76
2024/02/15 04:42:26;;;;;;;1.52;1.02;;;;;;;12.12;100.00;98017.22;5034507;28;20172;-77
2024/02/15 04:44:53;;;;;;;4.45;1.20;;;;;;;12.16;100.00;98015.47;5020239;28;20079;-78
2024/02/15 04:47:20;;;;;;;2.50;1.30;;;;;;;12.29;100.00;98012.63;5026539;28;20084;-79
2024/02/15 04:49:47;;;;;;;2.85;1.25;;;;;;;12.06;100.00;98013.84;5053408;28;20506;-79
2024/02/15 04:52:14;;;;;;;1.85;1.13;;;;;;;12.20;100.00;98025.41;5041381;28;20065;-79
2024/02/15 04:54:41;;;;;;;1.88;1.23;;;;;;;12.22;100.00;98025.06;5045771;28;20052;-77
2024/02/15 04:57:08;;;;;;;1.77;1.33;;;;;;;12.23;100.00;98023.97;5041265;28;20057;-78
2024/02/15 04:59:35;;;;;;;1.98;1.00;;;;;;;12.20;100.00;98022.69;5031136;28;20052;-78
2024/02/15 05:02:02;;;;;;;1.80;1.10;;;;;;;12.15;100.00;98024.75;5015946;28;20062;-77
2024/02/15 05:04:29;;;;;;;2.08;1.20;;;;;;;12.26;100.00;98031.47;5020852;28;20081;-78
2024/02/15 05:06:56;;;;;;;2.13;1.30;;;;;;;12.32;100.00;98019.34;5016530;28;20045;-79
2024/02/15 05:09:23;;;;;;;1.65;1.23;;;;;;;12.30;100.00;98035.16;5017454;28;20131;-78
2024/02/15 05:11:50;;;;;;;2.10;1.20;;;;;;;12.25;100.00;98022.53;5011752;28;20061;-78
2024/02/15 05:14:21;;;;;;;2.10;1.20;;;;;;;12.17;100.00;98025.22;5005960;28;20058;-80
2024/02/15 05:16:48;;;;;;;2.05;1.30;;;;;;;12.18;100.00;98033.03;5017976;28;20054;-79
2024/02/15 05:19:16;;;;;;;2.13;1.27;;;;;;;12.18;100.00;98029.53;5035191;28;20125;-80
2024/02/15 05:21:45;;;;;;;2.00;1.20;;;;;;;12.24;100.00;98030.97;5029630;28;20049;-79
2024/02/15 05:24:13;;;;;;;1.80;1.27;;;;;;;12.30;100.00;98035.97;5053575;28;20309;-79
2024/02/15 05:26:42;;;;;;;2.00;1.20;;;;;;;12.32;100.00;98031.00;5039258;28;20061;-79
2024/02/15 05:29:11;;;;;;;1.83;1.35;;;;;;;12.28;100.00;98040.09;5025678;28;20085;-80
2024/02/15 05:31:39;;;;;;;1.83;1.30;;;;;;;12.23;100.00;98037.53;5021124;28;20065;-78
2024/02/15 05:34:08;;;;;;;2.20;1.40;;;;;;;12.27;100.00;98031.16;5043100;28;20113;-78
2024/02/15 05:36:35;;;;;;;2.05;1.48;;;;;;;12.45;100.00;98034.69;5026072;28;20048;-81
2024/02/15 05:39:02;;;;;;;1.85;1.30;;;;;;;12.58;100.00;98025.63;5026177;28;20821;-81
2024/02/15 05:41:32;;;;;;;3.90;1.48;;;;;;;12.39;100.00;98023.19;5014684;28;20105;-81
2024/02/15 05:43:59;;;;;;;5.28;1.50;;;;;;;12.57;100.00;98026.72;5039374;28;20057;-80
2024/02/15 05:46:27;;;;;;;3.65;1.88;;;;;;;12.66;100.00;98029.44;5011379;28;20053;-81
2024/02/15 05:48:54;;;;;;;2.65;1.52;;;;;;;12.51;100.00;98022.59;5007598;28;20058;-80
2024/02/15 05:51:22;;;;;;;1.98;1.40;;;;;;;12.50;100.00;98034.53;5003077;28;20108;-80
2024/02/15 05:53:49;;;;;;;2.25;1.55;;;;;;;12.48;100.00;98034.88;5025545;28;20693;-81
2024/02/15 05:56:16;;;;;;;2.28;1.75;;;;;;;12.39;100.00;98039.47;5042547;28;20069;-79
2024/02/15 05:58:43;;;;;;;2.95;1.73;;;;;;;12.55;100.00;98041.72;5036075;28;20048;-81
2024/02/15 06:01:12;;;;;;;3.33;1.92;;;;;;;12.33;100.00;98040.75;5034475;28;20088;-79
2024/02/15 06:03:40;;;;;;;3.83;1.65;;;;;;;12.17;100.00;98034.16;5041795;28;20041;-78
2024/02/15 06:06:07;;;;;;;2.92;1.70;;;;;;;12.22;100.00;98028.59;5033058;28;20144;-79
2024/02/15 06:08:36;;;;;;;4.63;2.15;;;;;;;12.10;100.00;98049.31;5050490;28;20049;-82
2024/02/15 06:11:05;;;;;;;3.92;2.05;;;;;;;12.18;100.00;98049.31;5051251;28;20056;-78
2024/02/15 06:13:32;;;;;;;3.50;2.13;;;;;;;12.15;100.00;98041.03;5029623;28;20030;-78
2024/02/15 06:15:58;;;;;;;8.10;2.72;;;;;;;12.24;100.00;98053.50;5034194;28;20065;-78
2024/02/15 06:18:29;;;;;;;8.05;2.67;;;;;;;12.20;100.00;98057.97;5045022;28;20073;-80
2024/02/15 06:21:02;;;;;;;3.85;2.10;;;;;;;12.12;100.00;98044.34;5021078;28;20053;-79
2024/02/15 06:23:29;;;;;;;4.28;2.63;;;;;;;12.18;100.00;98051.25;5024365;28;20073;-80
2024/02/15 06:25:57;;;;;;;6.43;3.13;;;;;;;12.08;100.00;98041.47;5028008;28;20252;-80
2024/02/15 06:39:41;;;;;;;5.55;2.72;;;;;;;12.41;100.00;98061.69;5024928;28;20060;-81
2024/02/15 06:42:11;;;;;;;4.57;2.58;;;;;;;12.46;100.00;98072.38;5033021;28;20058;-82
2024/02/15 06:44:40;;;;;;;4.68;2.80;;;;;;;12.54;100.00;98059.16;5033327;28;20331;-80
2024/02/15 06:47:09;;;;;;;6.40;2.88;;;;;;;12.33;100.00;98048.09;5012678;28;20081;-81
2024/02/15 06:49:39;;;;;;;5.07;2.85;;;;;;;12.45;100.00;98070.00;5029620;28;20123;-80
2024/02/15 06:52:07;;;;;;;5.68;2.90;;;;;;;12.39;100.00;98055.78;5042865;28;20056;-78
2024/02/15 06:54:39;;;;;;;6.05;2.90;;;;;;;12.76;100.00;98075.31;5016372;28;20148;-78
2024/02/15 06:57:06;;;;;;;10.15;3.33;;;;;;;12.32;100.00;98068.22;5007298;28;20578;-81
2024/02/15 06:59:34;;;;;;;5.72;3.05;;;;;;;12.41;100.00;98077.97;5007499;28;20113;-80
2024/02/15 07:02:04;;;;;;;6.10;3.33;;;;;;;12.45;100.00;98078.94;5021296;28;20411;-79
2024/02/15 07:04:32;;;;;;;7.03;2.83;;;;;;;12.84;100.00;98064.47;5032177;28;20439;-81
2024/02/15 07:07:01;;;;;;;9.27;3.42;;;;;;;12.86;100.00;98072.28;5038585;28;20050;-79
2024/02/15 07:09:29;;;;;;;6.65;3.33;;;;;;;12.81;100.00;98072.44;5017025;28;20045;-78
2024/02/15 07:11:57;;;;;;;5.55;3.25;;;;;;;12.90;100.00;98071.38;5024529;28;20054;-78
2024/02/15 07:14:25;;;;;;;5.30;2.90;;;;;;;13.05;100.00;98065.44;5003944;28;20745;-79
2024/02/15 07:16:52;;;;;;;7.43;3.40;;;;;;;12.94;100.00;98076.94;5012609;28;20072;-80
2024/02/15 07:19:19;;;;;;;7.72;3.85;;;;;;;12.97;100.00;98062.72;5000326;28;20058;-79
2024/02/15 07:21:46;;;;;;;7.75;3.28;;;;;;;12.90;100.00;98073.28;5028611;28;20058;-80
2024/02/15 07:24:14;;;;;;;6.63;3.25;;;;;;;12.72;100.00;98072.47;5005847;28;20057;-79
2024/02/15 07:26:40;;;;;;;8.93;3.40;;;;;;;12.84;100.00;98071.81;5009826;28;20057;-79
2024/02/15 07:29:08;;;;;;;6.75;3.45;;;;;;;12.84;100.00;98074.53;5018533;28;20117;-80
2024/02/15 07:31:35;;;;;;;5.47;3.10;;;;;;;12.93;100.00;98051.69;5023940;28;20045;-78
2024/02/15 07:34:05;;;;;;;9.90;3.25;;;;;;;13.05;100.00;98060.00;5031473;28;20141;-79
2024/02/15 07:36:32;;;;;;;6.10;3.28;;;;;;;13.21;100.00;98057.63;5025955;28;20129;-80
2024/02/15 07:39:00;;;;;;;6.43;3.40;;;;;;;13.00;100.00;98060.19;5015841;28;20068;-80
2024/02/15 07:41:29;;;;;;;5.57;3.42;;;;;;;13.32;100.00;98063.50;5007878;28;20663;-79
2024/02/15 07:43:57;;;;;;;7.53;3.72;;;;;;;13.02;100.00;98057.13;5002442;28;20116;-79
2024/02/15 07:46:24;;;;;;;5.53;3.10;;;;;;;12.97;100.00;98060.81;5007069;28;20050;-79
2024/02/15 07:48:51;;;;;;;7.00;3.88;;;;;;;12.84;100.00;98047.38;5013419;28;20057;-79
2024/02/15 07:51:21;;;;;;;6.10;3.08;;;;;;;12.89;100.00;98033.63;5026713;28;20054;-78
2024/02/15 07:53:49;;;;;;;4.90;2.80;;;;;;;12.99;100.00;98055.03;4999193;28;20081;-80
2024/02/15 07:56:17;;;;;;;6.15;3.15;;;;;;;13.04;100.00;98046.72;5005818;28;20070;-78
2024/02/15 07:58:50;;;;;;;6.30;2.97;;;;;;;13.09;100.00;98046.59;5016246;28;20061;-81
2024/02/15 08:01:22;;;;;;;6.25;2.80;;;;;;;13.10;100.00;98051.72;5008648;28;20078;-81
2024/02/15 08:03:52;;;;;;;5.18;2.83;;;;;;;13.27;100.00;98044.66;5018739;28;20114;-79
2024/02/15 08:06:23;;;;;;;7.47;3.05;;;;;;;13.11;100.00;98047.88;5024041;28;20061;-79
2024/02/15 08:08:52;;;;;;;7.90;3.17;;;;;;;13.06;100.00;98039.88;5042202;28;20063;-81
2024/02/15 08:11:19;;;;;;;4.93;2.88;;;;;;;13.11;100.00;98060.66;5041226;28;20053;-82
2024/02/15 08:13:54;;;;;;;5.03;3.03;;;;;;;13.22;100.00;98069.28;5015752;28;20057;-78
2024/02/15 08:16:23;;;;;;;9.70;3.38;;;;;;;13.16;100.00;98044.22;5013643;28;20054;-79
2024/02/15 08:18:54;;;;;;;5.85;3.42;;;;;;;12.99;100.00;98047.69;5009562;28;20065;-80
2024/02/15 08:21:29;;;;;;;6.85;3.67;;;;;;;13.16;100.00;98048.84;5019004;28;20065;-78
2024/02/15 08:23:56;;;;;;;7.38;3.13;;;;;;;13.12;100.00;98037.81;5034418;28;20506;-79
2024/02/15 08:26:23;;;;;;;4.40;2.88;;;;;;;13.30;100.00;98044.00;5057682;28;20049;-81
2024/02/15 08:28:50;;;;;;;5.97;2.88;;;;;;;13.53;100.00;98053.56;5034488;28;20076;-80
2024/02/15 08:31:19;;;;;;;5.85;3.15;;;;;;;13.70;100.00;98059.75;5036136;28;20860;-80
2024/02/15 08:33:46;;;;;;;5.50;3.28;;;;;;;13.55;100.00;98043.97;5047685;28;20057;-80
2024/02/15 08:36:15;;;;;;;5.95;3.03;;;;;;;13.70;100.00;98056.25;5034561;28;20081;-80
2024/02/15 08:38:43;;;;;;;6.13;3.13;;;;;;;13.50;100.00;98055.00;5007344;28;20069;-80
2024/02/15 08:41:12;;;;;;;6.10;3.15;;;;;;;13.60;100.00;98051.94;5005703;28;20050;-80
2024/02/15 08:43:41;;;;;;;6.63;2.92;;;;;;;13.78;100.00;98044.56;4998056;28;20185;-79
2024/02/15 08:46:07;;;;;;;5.50;3.17;;;;;;;13.73;100.00;98044.72;5013231;28;20064;-78
2024/02/15 08:48:34;;;;;;;4.85;2.83;;;;;;;13.71;100.00;98041.50;5022445;28;20049;-79
2024/02/15 08:51:02;;;;;;;5.22;2.83;;;;;;;13.97;100.00;98035.97;5011759;28;20058;-80
2024/02/15 08:53:29;;;;;;;7.45;2.83;;;;;;;14.20;100.00;98045.47;5035233;28;20056;-78
2024/02/15 08:55:56;;;;;;;5.90;2.60;;;;;;;14.10;100.00;98041.22;5042962;28;20065;-80
2024/02/15 08:58:22;;;;;;;5.90;2.67;;;;;;;14.15;100.00;98037.50;5020439;28;20094;-77
2024/02/15 09:00:49;;;;;;;5.22;2.25;;;;;;;14.05;100.00;98043.31;5029839;28;20428;-80
2024/02/15 09:03:18;;;;;;;4.80;2.30;;;;;;;14.48;100.00;98046.63;5023400;28;20057;-78
2024/02/15 09:05:45;;;;;;;4.40;2.15;;;;;;;14.14;100.00;98036.69;5021816;28;20048;-78
2024/02/15 09:08:12;;;;;;;6.43;2.65;;;;;;;14.18;100.00;98047.75;5033827;28;20462;-78
2024/02/15 09:10:39;;;;;;;5.88;2.42;;;;;;;14.26;100.00;98049.63;5019468;28;20061;-78
2024/02/15 09:13:06;;;;;;;4.60;2.10;;;;;;;13.99;100.00;98050.84;5012066;28;20069;-78
2024/02/15 09:15:34;;;;;;;5.47;2.53;;;;;;;14.21;100.00;98047.09;5002226;28;20105;-79
2024/02/15 09:18:01;;;;;;;3.75;2.25;;;;;;;14.17;100.00;98046.94;5006792;28;20546;-79
2024/02/15 09:20:29;;;;;;;5.07;2.40;;;;;;;14.38;100.00;98054.38;5003512;28;20053;-79
2024/02/15 09:22:56;;;;;;;7.25;2.30;;;;;;;14.03;100.00;98068.16;5022218;28;20054;-78
2024/02/15 09:25:23;;;;;;;4.80;2.50;;;;;;;14.12;100.00;98057.22;5021323;28;20155;-79
2024/02/15 09:27:51;;;;;;;5.15;2.28;;;;;;;13.94;100.00;98053.75;5007293;28;20465;-78
2024/02/15 09:30:18;;;;;;;3.42;2.10;;;;;;;13.69;100.00;98066.34;5019553;28;20127;-80
2024/02/15 09:32:45;;;;;;;5.03;2.38;;;;;;;13.62;100.00;98066.03;5021055;28;20046;-80
2024/02/15 09:35:13;;;;;;;3.97;2.17;;;;;;;13.89;100.00;98066.75;5026214;28;20543;-79
2024/02/15 09:37:46;;;;;;;7.53;2.63;;;;;;;13.99;100.00;98063.69;5032607;28;20058;-79
2024/02/15 09:40:15;;;;;;;4.10;2.20;;;;;;;13.94;100.00;98044.78;5001145;28;20062;-77
2024/02/15 09:42:44;;;;;;;4.32;2.40;;;;;;;13.86;100.00;98062.75;5045509;28;20075;-78
2024/02/15 09:45:15;;;;;;;3.33;2.28;;;;;;;13.91;100.00;98069.97;5040736;28;20061;-79
2024/02/15 09:47:44;;;;;;;4.38;2.35;;;;;;;13.74;100.00;98063.44;5013594;28;20054;-80
2024/02/15 09:50:14;;;;;;;3.63;2.33;;;;;;;14.00;100.00;98054.38;5028237;28;20065;-78
2024/02/15 09:52:44;;;;;;;5.47;2.50;;;;;;;13.75;100.00;98058.81;5033034;28;20107;-78
2024/02/15 09:55:13;;;;;;;5.32;2.60;;;;;;;14.01;100.00;98056.81;5027052;28;20109;-80
2024/02/15 09:57:44;;;;;;;6.85;2.28;;;;;;;14.38;100.00;98066.09;5039407;28;20056;-80
2024/02/15 10:00:13;;;;;;;4.70;2.53;;;;;;;14.44;100.00;98053.06;5032540;28;20062;-80
2024/02/15 10:02:44;;;;;;;4.65;2.10;;;;;;;14.42;100.00;98049.91;5024161;28;20093;-79
2024/02/15 10:05:12;;;;;;;3.67;2.20;;;;;;;14.54;100.00;98066.31;5016915;28;20150;-81
2024/02/15 10:07:44;;;;;;;4.05;2.17;;;;;;;14.57;100.00;98062.94;5019653;28;20079;-80
2024/02/15 10:10:16;;;;;;;3.72;1.98;;;;;;;14.74;100.00;98060.91;5029629;28;20061;-80
2024/02/15 10:12:43;;;;;;;5.13;2.38;;;;;;;14.75;100.00;98062.50;5024010;28;20571;-80
2024/02/15 10:15:10;;;;;;;2.78;1.80;;;;;;;14.79;100.00;98054.44;5025768;28;20993;-81
2024/02/15 10:17:37;;;;;;;5.13;2.10;;;;;;;14.59;100.00;98066.94;5045539;28;20046;-80
2024/02/15 10:20:05;;;;;;;3.78;2.08;;;;;;;14.68;100.00;98072.34;5045339;28;20156;-80
2024/02/15 10:22:32;;;;;;;5.43;2.13;;;;;;;14.74;100.00;98063.63;5036082;28;20853;-81
2024/02/15 10:25:11;;;;;;;5.60;2.03;;;;;;;14.68;100.00;98073.13;5027438;28;20061;-79
2024/02/15 10:27:40;;;;;;;3.75;2.13;;;;;;;14.37;100.00;98064.50;5037853;28;20052;-79
2024/02/15 10:30:17;;;;;;;4.85;2.10;;;;;;;14.48;100.00;98067.66;5012780;28;20115;-80
2024/02/15 10:32:44;;;;;;;6.28;2.40;;;;;;;14.37;100.00;98067.22;5028502;28;20630;-79
2024/02/15 10:35:19;;;;;;;3.95;2.22;;;;;;;14.54;100.00;98069.03;5024839;28;20148;-80
2024/02/15 10:37:48;;;;;;;5.57;2.35;;;;;;;14.61;100.00;98074.75;5022643;28;20075;-80
2024/02/15 10:40:19;;;;;;;3.45;2.05;;;;;;;14.49;100.00;98050.16;5022969;28;20113;-78
2024/02/15 10:42:51;;;;;;;4.35;2.20;;;;;;;14.64;100.00;98049.59;4997865;28;20056;-80
2024/02/15 10:45:19;;;;;;;4.47;1.92;;;;;;;14.92;100.00;98048.75;5006475;28;20159;-80
2024/02/15 10:47:47;;;;;;;3.60;2.03;;;;;;;15.04;100.00;98052.66;5008597;28;20081;-80
2024/02/15 10:50:15;;;;;;;3.53;2.15;;;;;;;14.97;100.00;98047.72;5025317;28;20090;-79
2024/02/15 10:52:55;;;;;;;2.90;1.75;;;;;;;15.21;100.00;98044.31;5041928;28;20049;-78
2024/02/15 10:55:35;;;;;;;4.90;2.00;;;;;;;15.00;100.00;98036.16;5023130;28;20076;-78
2024/02/15 10:58:06;;;;;;;3.65;1.95;;;;;;;15.30;100.00;98045.88;4991828;28;20095;-79
2024/02/15 11:00:37;;;;;;;4.57;2.00;;;;;;;15.05;100.00;98037.88;5002542;28;20397;-78
2024/02/15 11:03:07;;;;;;;4.20;2.00;;;;;;;15.04;100.00;98039.84;5015058;28;20520;-79
2024/02/15 11:05:37;;;;;;;4.82;1.98;;;;;;;14.95;100.00;98041.81;5034270;28;20056;-78
2024/02/15 11:08:06;;;;;;;3.72;1.75;;;;;;;14.93;100.00;98035.91;5020037;28;20045;-78
2024/02/15 11:10:35;;;;;;;3.55;1.70;;;;;;;15.08;100.00;98037.22;5033457;28;20100;-78
2024/02/15 11:13:02;;;;;;;3.80;1.83;;;;;;;14.97;100.00;98034.09;5049836;28;20484;-79
2024/02/15 11:15:53;;;;;;;3.47;1.85;;;;;;;15.21;100.00;98027.97;5029907;28;20050;-78
2024/02/15 11:18:51;;;;;;;3.75;1.70;;;;;;;15.29;100.00;98019.72;5038286;28;20114;-78
2024/02/15 11:21:38;;;;;;;4.53;2.10;;;;;;;15.42;100.00;98006.91;5012417;28;20062;-80
2024/02/15 11:24:37;;;;;;;6.30;2.03;;;;;;;15.56;100.00;98013.66;5006864;28;20064;-77
2024/02/15 11:27:05;;;;;;;3.80;1.83;;;;;;;15.89;100.00;98023.75;5023761;28;20049;-79
2024/02/15 11:29:51;;;;;;;3.50;2.10;;;;;;;15.99;100.00;98012.38;5033684;28;20141;-77
2024/02/15 11:32:51;;;;;;;3.28;1.90;;;;;;;15.97;100.00;98014.66;5011378;28;20076;-78
2024/02/15 11:35:22;;;;;;;4.43;2.03;;;;;;;15.56;100.00;98007.44;5010845;28;20064;-78
2024/02/15 11:37:52;;;;;;;;;;;;;;;;;;;;;
2024/02/15 11:40:23;;;;;;;2.60;1.73;;;;;;;15.87;100.00;98010.41;5008752;28;20141;-77
2024/02/15 11:42:53;;;;;;;5.95;2.65;;;;;;;16.00;100.00;98013.97;5037429;28;20773;-78
2024/02/15 11:45:20;;;;;;;6.28;2.13;;;;;;;16.24;100.00;98003.03;5014799;28;20054;-77